Date,TemperatureHighF,TemperatureAvgF,TemperatureLowF,DewpointHighF,DewpointAvgF,DewpointLowF,HumidityHigh,HumidityAvg,HumidityLow,PressureMaxIn,PressureMinIn,WindSpeedMaxMPH,WindSpeedAvgMPH,GustSpeedMaxMPH,PrecipitationSumIn
2013-2-1,86.7,74.0,64.3,71.4,66.4,61.9,92,79,48,29.79,29.64,11,1,22,0.46
2013-2-2,69.1,60.4,59.8,62.9,45.9,-99.9,93,74,59,30.01,29.72,5,1,13,0.39
2013-2-3,77.2,65.8,55.3,57.5,52.8,49.5,85,65,42,30.12,29.96,4,1,16,0.00
2013-2-4,81.8,70.2,59.2,61.8,58.5,55.3,89,68,43,30.29,30.11,7,2,17,0.00
2013-2-5,82.4,70.6,60.2,62.1,59.4,56.3,89,69,44,30.30,30.18,8,1,16,0.00
2013-2-6,84.7,72.1,61.8,62.5,59.0,53.1,91,67,35,30.22,30.07,6,1,16,0.00
2013-2-7,88.6,73.3,58.4,63.3,58.2,52.3,91,63,31,30.13,29.99,2,0,10,0.00
2013-2-8,96.3,77.2,59.5,65.4,59.2,52.1,90,60,24,30.13,30.00,2,0,7,0.00
2013-2-9,99.7,79.5,62.9,68.9,62.4,56.4,89,61,26,30.09,29.90,2,0,11,0.00
2013-2-10,98.0,80.1,67.8,69.4,64.4,56.5,90,64,27,30.17,29.90,7,1,16,2.13
2013-2-11,77.9,70.0,65.2,66.6,64.6,63.1,94,84,65,30.16,30.08,3,0,11,0.08
2013-2-12,78.8,70.7,66.8,67.0,63.5,60.5,87,78,62,30.23,30.10,6,1,14,0.01
2013-2-13,79.2,70.2,64.0,64.6,59.2,53.8,90,70,43,30.28,30.18,6,1,14,0.01
2013-2-14,81.4,70.0,57.2,62.2,58.0,54.0,91,68,43,30.24,30.12,6,1,14,0.00
2013-2-15,79.4,70.7,62.0,65.4,61.5,57.8,91,74,49,30.22,30.12,7,2,16,0.00
2013-2-16,81.8,70.6,63.4,66.5,61.3,58.0,89,74,45,30.23,30.12,7,1,17,0.07
2013-2-17,82.2,71.0,60.4,63.8,59.6,54.2,91,70,40,30.22,30.12,7,1,17,0.00
2013-2-18,82.4,71.1,59.8,64.2,59.7,56.2,90,69,46,30.17,30.01,8,2,19,0.00
2013-2-19,87.6,73.8,61.8,65.5,62.6,58.8,91,70,39,30.06,29.92,5,1,16,0.00
2013-2-20,84.7,73.8,65.8,68.1,63.7,59.9,91,73,45,30.10,29.98,7,2,16,0.01
2013-2-21,82.2,72.9,65.8,68.5,64.4,59.8,91,76,48,30.10,30.02,9,2,20,0.30
2013-2-22,78.5,70.0,65.0,66.7,64.1,60.5,93,83,54,30.08,30.00,11,3,28,0.07
2013-2-23,73.9,68.4,64.3,71.5,64.0,-99.9,93,91,89,30.01,29.72,9,5,19,3.17
2013-2-24,90.5,76.2,66.6,72.0,68.1,63.7,94,78,50,29.99,29.83,2,0,7,0.01
2013-2-25,89.9,77.5,68.3,72.6,68.9,65.4,92,76,52,30.09,29.98,4,0,11,0.00
2013-2-26,86.3,77.0,69.9,68.2,66.7,64.2,87,72,49,30.10,29.99,4,1,12,0.00
2013-2-27,90.1,77.2,66.8,68.0,64.8,61.9,88,68,40,30.05,29.87,2,0,6,0.00
2013-2-28,88.6,76.5,67.3,69.5,65.6,63.3,90,72,45,29.91,29.75,5,1,12,0.27